sensor_id;sensor_type;location;lat;lon;timestamp;temperature;humidity
28438;DHT22;15667;52.376;9.708;2023-05-19T00:01:43;11.50;99.90
28438;DHT22;15667;52.376;9.708;2023-05-19T00:04:10;10.50;99.90
28438;DHT22;15667;52.376;9.708;2023-05-19T00:06:39;10.30;99.90
28438;DHT22;15667;52.376;9.708;2023-05-19T00:09:08;10.30;99.90
28438;DHT22;15667;52.376;9.708;2023-05-19T00:11:36;9.80;99.90
28438;DHT22;15667;52.376;9.708;2023-05-19T00:14:06;10.40;99.90
28438;DHT22;15667;52.376;9.708;2023-05-19T00:16:50;8.70;99.90
28438;DHT22;15667;52.376;9.708;2023-05-19T00:19:19;11.90;99.90
28438;DHT22;15667;52.376;9.708;2023-05-19T00:21:46;10.30;99.90
28438;DHT22;15667;52.376;9.708;2023-05-19T00:24:12;11.50;99.90
28438;DHT22;15667;52.376;9.708;2023-05-19T00:26:38;12.20;99.90
28438;DHT22;15667;52.376;9.708;2023-05-19T00:29:04;10.20;99.90
28438;DHT22;15667;52.376;9.708;2023-05-19T00:31:30;8.70;99.90
28438;DHT22;15667;52.376;9.708;2023-05-19T00:33:59;10.20;99.90
28438;DHT22;15667;52.376;9.708;2023-05-19T00:46:09;10.20;99.90
28438;DHT22;15667;52.376;9.708;2023-05-19T00:48:35;10.20;99.90
28438;DHT22;15667;52.376;9.708;2023-05-19T00:51:02;10.10;99.90
28438;DHT22;15667;52.376;9.708;2023-05-19T00:53:33;10.90;99.90
28438;DHT22;15667;52.376;9.708;2023-05-19T00:56:00;10.30;99.90
28438;DHT22;15667;52.376;9.708;2023-05-19T00:58:26;10.90;99.90
28438;DHT22;15667;52.376;9.708;2023-05-19T01:00:58;11.10;99.90
28438;DHT22;15667;52.376;9.708;2023-05-19T01:03:32;10.00;99.90
28438;DHT22;15667;52.376;9.708;2023-05-19T01:06:01;10.40;99.90
28438;DHT22;15667;52.376;9.708;2023-05-19T01:08:31;10.10;99.90
28438;DHT22;15667;52.376;9.708;2023-05-19T01:10:57;11.10;99.90
28438;DHT22;15667;52.376;9.708;2023-05-19T01:13:23;10.40;99.90
28438;DHT22;15667;52.376;9.708;2023-05-19T01:16:24;10.00;99.90
28438;DHT22;15667;52.376;9.708;2023-05-19T01:19:24;10.10;99.90
28438;DHT22;15667;52.376;9.708;2023-05-19T01:28:25;10.00;1.00
28438;DHT22;15667;52.376;9.708;2023-05-19T01:30:59;10.00;1.00
28438;DHT22;15667;52.376;9.708;2023-05-19T01:33:26;10.00;1.00
28438;DHT22;15667;52.376;9.708;2023-05-19T01:35:54;10.10;1.00
28438;DHT22;15667;52.376;9.708;2023-05-19T01:38:21;9.90;1.00
28438;DHT22;15667;52.376;9.708;2023-05-19T01:40:48;10.50;1.00
28438;DHT22;15667;52.376;9.708;2023-05-19T01:43:19;10.60;1.00
28438;DHT22;15667;52.376;9.708;2023-05-19T01:45:45;11.10;1.00
28438;DHT22;15667;52.376;9.708;2023-05-19T01:48:12;9.80;1.00
28438;DHT22;15667;52.376;9.708;2023-05-19T01:50:39;9.90;1.00
28438;DHT22;15667;52.376;9.708;2023-05-19T01:53:04;10.40;1.00
28438;DHT22;15667;52.376;9.708;2023-05-19T01:55:30;10.10;1.00
28438;DHT22;15667;52.376;9.708;2023-05-19T02:06:19;9.80;1.00
28438;DHT22;15667;52.376;9.708;2023-05-19T02:08:56;9.80;1.00
28438;DHT22;15667;52.376;9.708;2023-05-19T02:14:01;9.70;1.00
28438;DHT22;15667;52.376;9.708;2023-05-19T02:16:28;10.50;1.00
28438;DHT22;15667;52.376;9.708;2023-05-19T02:19:00;8.50;1.00
28438;DHT22;15667;52.376;9.708;2023-05-19T02:21:26;10.60;1.00
28438;DHT22;15667;52.376;9.708;2023-05-19T02:23:51;9.90;1.00
28438;DHT22;15667;52.376;9.708;2023-05-19T02:26:17;9.50;1.00
28438;DHT22;15667;52.376;9.708;2023-05-19T02:28:43;10.00;1.00
28438;DHT22;15667;52.376;9.708;2023-05-19T02:31:09;10.50;1.00
28438;DHT22;15667;52.376;9.708;2023-05-19T02:33:34;9.30;1.00
28438;DHT22;15667;52.376;9.708;2023-05-19T02:36:00;9.50;1.00
28438;DHT22;15667;52.376;9.708;2023-05-19T02:38:27;10.20;1.00
28438;DHT22;15667;52.376;9.708;2023-05-19T02:40:53;8.10;1.00
28438;DHT22;15667;52.376;9.708;2023-05-19T02:43:18;10.60;1.00
28438;DHT22;15667;52.376;9.708;2023-05-19T02:45:44;10.40;1.00
28438;DHT22;15667;52.376;9.708;2023-05-19T02:48:10;8.70;1.00
28438;DHT22;15667;52.376;9.708;2023-05-19T02:50:36;9.20;1.00
28438;DHT22;15667;52.376;9.708;2023-05-19T02:53:03;8.40;1.00
28438;DHT22;15667;52.376;9.708;2023-05-19T02:55:28;9.60;1.00
28438;DHT22;15667;52.376;9.708;2023-05-19T02:57:54;9.70;1.00
28438;DHT22;15667;52.376;9.708;2023-05-19T03:00:20;9.20;1.00
28438;DHT22;15667;52.376;9.708;2023-05-19T03:02:46;8.60;1.00
28438;DHT22;15667;52.376;9.708;2023-05-19T03:05:12;8.10;1.00
28438;DHT22;15667;52.376;9.708;2023-05-19T03:07:38;9.50;1.00
28438;DHT22;15667;52.376;9.708;2023-05-19T03:10:04;9.10;1.00
28438;DHT22;15667;52.376;9.708;2023-05-19T03:12:33;9.00;1.00
28438;DHT22;15667;52.376;9.708;2023-05-19T03:15:07;9.00;1.00
28438;DHT22;15667;52.376;9.708;2023-05-19T03:17:43;9.00;1.00
28438;DHT22;15667;52.376;9.708;2023-05-19T03:20:09;9.80;1.00
28438;DHT22;15667;52.376;9.708;2023-05-19T03:22:40;10.00;1.00
28438;DHT22;15667;52.376;9.708;2023-05-19T03:25:06;10.20;1.00
28438;DHT22;15667;52.376;9.708;2023-05-19T03:27:32;8.80;1.00
28438;DHT22;15667;52.376;9.708;2023-05-19T03:29:58;9.10;1.30
28438;DHT22;15667;52.376;9.708;2023-05-19T03:32:23;9.00;2.20
28438;DHT22;15667;52.376;9.708;2023-05-19T03:34:50;8.90;2.90
28438;DHT22;15667;52.376;9.708;2023-05-19T03:37:16;8.90;7.20
28438;DHT22;15667;52.376;9.708;2023-05-19T03:39:41;8.90;7.60
28438;DHT22;15667;52.376;9.708;2023-05-19T03:42:07;8.90;99.90
28438;DHT22;15667;52.376;9.708;2023-05-19T03:44:33;8.80;99.90
28438;DHT22;15667;52.376;9.708;2023-05-19T03:46:59;8.70;21.30
28438;DHT22;15667;52.376;9.708;2023-05-19T03:49:25;7.90;41.10
28438;DHT22;15667;52.376;9.708;2023-05-19T03:51:50;8.60;78.70
28438;DHT22;15667;52.376;9.708;2023-05-19T03:54:16;7.30;61.50
28438;DHT22;15667;52.376;9.708;2023-05-19T03:56:43;8.70;42.60
28438;DHT22;15667;52.376;9.708;2023-05-19T03:59:09;10.10;56.70
28438;DHT22;15667;52.376;9.708;2023-05-19T04:01:37;9.30;90.60
28438;DHT22;15667;52.376;9.708;2023-05-19T04:04:03;8.60;99.90
28438;DHT22;15667;52.376;9.708;2023-05-19T04:06:32;8.60;99.90
28438;DHT22;15667;52.376;9.708;2023-05-19T04:08:58;8.60;99.90
28438;DHT22;15667;52.376;9.708;2023-05-19T04:11:24;8.70;99.90
28438;DHT22;15667;52.376;9.708;2023-05-19T04:13:53;8.60;99.90
28438;DHT22;15667;52.376;9.708;2023-05-19T04:16:20;8.60;99.90
28438;DHT22;15667;52.376;9.708;2023-05-19T04:18:46;8.60;99.90
28438;DHT22;15667;52.376;9.708;2023-05-19T04:21:12;7.50;99.90
28438;DHT22;15667;52.376;9.708;2023-05-19T04:23:38;8.10;99.90
28438;DHT22;15667;52.376;9.708;2023-05-19T04:26:04;9.30;99.90
28438;DHT22;15667;52.376;9.708;2023-05-19T04:28:31;9.80;99.90
28438;DHT22;15667;52.376;9.708;2023-05-19T04:31:00;8.80;99.90
28438;DHT22;15667;52.376;9.708;2023-05-19T04:33:29;8.60;99.90
28438;DHT22;15667;52.376;9.708;2023-05-19T04:35:54;8.40;99.90
28438;DHT22;15667;52.376;9.708;2023-05-19T04:38:24;8.50;99.90
28438;DHT22;15667;52.376;9.708;2023-05-19T04:41:02;7.80;99.90
28438;DHT22;15667;52.376;9.708;2023-05-19T04:43:39;8.40;99.90
28438;DHT22;15667;52.376;9.708;2023-05-19T04:46:11;8.50;99.90
28438;DHT22;15667;52.376;9.708;2023-05-19T04:48:39;9.80;99.90
28438;DHT22;15667;52.376;9.708;2023-05-19T04:51:08;8.60;99.90
28438;DHT22;15667;52.376;9.708;2023-05-19T04:53:34;7.90;99.90
28438;DHT22;15667;52.376;9.708;2023-05-19T04:56:01;8.60;99.90
28438;DHT22;15667;52.376;9.708;2023-05-19T04:58:26;8.70;99.90
28438;DHT22;15667;52.376;9.708;2023-05-19T05:00:52;7.30;99.90
28438;DHT22;15667;52.376;9.708;2023-05-19T05:03:23;9.40;99.90
28438;DHT22;15667;52.376;9.708;2023-05-19T05:05:48;8.50;99.90
28438;DHT22;15667;52.376;9.708;2023-05-19T05:08:14;9.80;99.90
28438;DHT22;15667;52.376;9.708;2023-05-19T05:10:50;8.70;99.90
28438;DHT22;15667;52.376;9.708;2023-05-19T05:13:21;8.70;99.90
28438;DHT22;15667;52.376;9.708;2023-05-19T05:15:48;8.90;99.90
28438;DHT22;15667;52.376;9.708;2023-05-19T05:18:14;8.80;99.90
28438;DHT22;15667;52.376;9.708;2023-05-19T05:20:43;8.80;99.90
28438;DHT22;15667;52.376;9.708;2023-05-19T05:23:11;8.80;99.90
28438;DHT22;15667;52.376;9.708;2023-05-19T05:25:41;8.90;99.90
28438;DHT22;15667;52.376;9.708;2023-05-19T05:28:07;8.90;99.90
28438;DHT22;15667;52.376;9.708;2023-05-19T05:30:33;9.10;99.90
28438;DHT22;15667;52.376;9.708;2023-05-19T05:32:59;9.00;99.90
28438;DHT22;15667;52.376;9.708;2023-05-19T05:35:25;9.90;99.90
28438;DHT22;15667;52.376;9.708;2023-05-19T05:37:51;9.10;99.90
28438;DHT22;15667;52.376;9.708;2023-05-19T05:40:16;9.90;99.90
28438;DHT22;15667;52.376;9.708;2023-05-19T05:42:42;9.40;99.90
28438;DHT22;15667;52.376;9.708;2023-05-19T05:45:08;9.40;99.90
28438;DHT22;15667;52.376;9.708;2023-05-19T05:47:34;9.50;99.90
28438;DHT22;15667;52.376;9.708;2023-05-19T05:50:11;9.50;99.90
28438;DHT22;15667;52.376;9.708;2023-05-19T06:04:13;10.10;99.90
28438;DHT22;15667;52.376;9.708;2023-05-19T06:07:45;9.60;99.90
28438;DHT22;15667;52.376;9.708;2023-05-19T06:10:55;10.40;99.90
28438;DHT22;15667;52.376;9.708;2023-05-19T06:24:51;9.70;99.90
28438;DHT22;15667;52.376;9.708;2023-05-19T06:34:23;11.30;99.90
28438;DHT22;15667;52.376;9.708;2023-05-19T06:37:30;11.40;99.90
28438;DHT22;15667;52.376;9.708;2023-05-19T06:40:28;11.50;99.90
28438;DHT22;15667;52.376;9.708;2023-05-19T06:43:10;11.50;99.90
28438;DHT22;15667;52.376;9.708;2023-05-19T06:46:39;11.80;99.90
28438;DHT22;15667;52.376;9.708;2023-05-19T06:52:46;12.00;99.90
28438;DHT22;15667;52.376;9.708;2023-05-19T07:03:11;12.50;99.90
28438;DHT22;15667;52.376;9.708;2023-05-19T07:23:56;13.10;99.90
28438;DHT22;15667;52.376;9.708;2023-05-19T07:30:57;13.10;99.90
28438;DHT22;15667;52.376;9.708;2023-05-19T07:37:43;13.40;99.90
28438;DHT22;15667;52.376;9.708;2023-05-19T07:40:10;13.40;99.90
28438;DHT22;15667;52.376;9.708;2023-05-19T07:42:40;13.50;99.90
28438;DHT22;15667;52.376;9.708;2023-05-19T07:45:06;14.70;99.90
28438;DHT22;15667;52.376;9.708;2023-05-19T07:47:32;13.60;99.90
28438;DHT22;15667;52.376;9.708;2023-05-19T07:49:57;13.80;99.90
28438;DHT22;15667;52.376;9.708;2023-05-19T07:52:23;13.90;99.90
28438;DHT22;15667;52.376;9.708;2023-05-19T07:54:49;15.20;99.90
28438;DHT22;15667;52.376;9.708;2023-05-19T07:57:29;13.90;99.90
28438;DHT22;15667;52.376;9.708;2023-05-19T08:10:27;14.20;99.90
28438;DHT22;15667;52.376;9.708;2023-05-19T09:31:52;17.30;99.90
28438;DHT22;15667;52.376;9.708;2023-05-19T09:48:43;18.80;99.90
28438;DHT22;15667;52.376;9.708;2023-05-19T09:52:18;18.80;99.90
28438;DHT22;15667;52.376;9.708;2023-05-19T09:56:14;18.90;99.90
28438;DHT22;15667;52.376;9.708;2023-05-19T10:02:01;19.20;99.90
28438;DHT22;15667;52.376;9.708;2023-05-19T10:04:28;19.00;99.90
28438;DHT22;15667;52.376;9.708;2023-05-19T10:06:55;19.20;99.90
28438;DHT22;15667;52.376;9.708;2023-05-19T10:09:33;18.70;99.90
28438;DHT22;15667;52.376;9.708;2023-05-19T10:12:01;18.40;99.90
28438;DHT22;15667;52.376;9.708;2023-05-19T10:14:28;18.30;99.90
28438;DHT22;15667;52.376;9.708;2023-05-19T10:16:56;18.40;99.90
28438;DHT22;15667;52.376;9.708;2023-05-19T10:19:23;18.80;99.90
28438;DHT22;15667;52.376;9.708;2023-05-19T10:21:50;19.00;99.90
28438;DHT22;15667;52.376;9.708;2023-05-19T10:24:17;19.60;99.90
28438;DHT22;15667;52.376;9.708;2023-05-19T10:26:47;19.00;99.90
28438;DHT22;15667;52.376;9.708;2023-05-19T10:29:18;18.70;99.90
28438;DHT22;15667;52.376;9.708;2023-05-19T10:31:46;19.20;99.90
28438;DHT22;15667;52.376;9.708;2023-05-19T10:34:25;19.70;99.90
28438;DHT22;15667;52.376;9.708;2023-05-19T10:40:36;20.30;99.90
28438;DHT22;15667;52.376;9.708;2023-05-19T10:46:31;18.80;99.90
28438;DHT22;15667;52.376;9.708;2023-05-19T10:50:18;19.50;99.90
28438;DHT22;15667;52.376;9.708;2023-05-19T10:57:37;20.60;99.90
28438;DHT22;15667;52.376;9.708;2023-05-19T11:00:28;20.70;99.90
28438;DHT22;15667;52.376;9.708;2023-05-19T11:03:25;20.40;99.90
28438;DHT22;15667;52.376;9.708;2023-05-19T11:13:35;19.90;99.90
28438;DHT22;15667;52.376;9.708;2023-05-19T11:16:28;20.00;99.90
28438;DHT22;15667;52.376;9.708;2023-05-19T11:19:34;19.50;99.90
28438;DHT22;15667;52.376;9.708;2023-05-19T11:22:15;17.70;99.90
28438;DHT22;15667;52.376;9.708;2023-05-19T11:24:45;18.10;99.90
28438;DHT22;15667;52.376;9.708;2023-05-19T11:32:53;18.30;99.90
28438;DHT22;15667;52.376;9.708;2023-05-19T11:38:20;17.70;99.90
28438;DHT22;15667;52.376;9.708;2023-05-19T11:56:14;17.80;99.90
28438;DHT22;15667;52.376;9.708;2023-05-19T11:58:51;18.80;99.90
28438;DHT22;15667;52.376;9.708;2023-05-19T12:01:18;19.70;97.50
28438;DHT22;15667;52.376;9.708;2023-05-19T12:03:54;20.30;97.20
28438;DHT22;15667;52.376;9.708;2023-05-19T12:10:39;18.20;97.40
28438;DHT22;15667;52.376;9.708;2023-05-19T12:13:37;17.60;97.90
28438;DHT22;15667;52.376;9.708;2023-05-19T12:16:54;18.40;98.50
28438;DHT22;15667;52.376;9.708;2023-05-19T12:19:30;17.70;98.80
28438;DHT22;15667;52.376;9.708;2023-05-19T12:35:02;18.90;96.50
28438;DHT22;15667;52.376;9.708;2023-05-19T12:37:29;18.70;96.30
28438;DHT22;15667;52.376;9.708;2023-05-19T12:39:59;18.40;96.10
28438;DHT22;15667;52.376;9.708;2023-05-19T12:42:31;19.20;96.10
28438;DHT22;15667;52.376;9.708;2023-05-19T12:45:03;17.80;95.70
28438;DHT22;15667;52.376;9.708;2023-05-19T12:47:51;18.20;96.50
28438;DHT22;15667;52.376;9.708;2023-05-19T12:50:17;18.50;97.40
28438;DHT22;15667;52.376;9.708;2023-05-19T12:52:48;18.40;96.60
28438;DHT22;15667;52.376;9.708;2023-05-19T12:55:25;18.20;97.70
28438;DHT22;15667;52.376;9.708;2023-05-19T12:58:05;18.70;96.80
28438;DHT22;15667;52.376;9.708;2023-05-19T13:03:41;21.00;94.20
28438;DHT22;15667;52.376;9.708;2023-05-19T13:06:13;22.60;91.80
28438;DHT22;15667;52.376;9.708;2023-05-19T13:08:50;23.00;89.60
28438;DHT22;15667;52.376;9.708;2023-05-19T13:11:16;22.80;91.70
28438;DHT22;15667;52.376;9.708;2023-05-19T13:14:19;21.30;92.20
28438;DHT22;15667;52.376;9.708;2023-05-19T13:16:45;19.80;93.40
28438;DHT22;15667;52.376;9.708;2023-05-19T13:19:16;19.40;94.70
28438;DHT22;15667;52.376;9.708;2023-05-19T13:22:08;19.20;94.60
28438;DHT22;15667;52.376;9.708;2023-05-19T13:24:34;18.60;92.20
28438;DHT22;15667;52.376;9.708;2023-05-19T13:27:14;19.70;93.10
28438;DHT22;15667;52.376;9.708;2023-05-19T13:29:52;19.40;93.60
28438;DHT22;15667;52.376;9.708;2023-05-19T13:32:18;19.20;94.20
28438;DHT22;15667;52.376;9.708;2023-05-19T13:34:46;19.30;94.10
28438;DHT22;15667;52.376;9.708;2023-05-19T13:37:13;19.60;94.40
28438;DHT22;15667;52.376;9.708;2023-05-19T13:46:42;19.70;93.30
28438;DHT22;15667;52.376;9.708;2023-05-19T13:49:08;18.90;94.20
28438;DHT22;15667;52.376;9.708;2023-05-19T13:51:34;18.70;94.30
28438;DHT22;15667;52.376;9.708;2023-05-19T16:50:09;18.30;93.10
28438;DHT22;15667;52.376;9.708;2023-05-19T16:52:37;18.30;93.30
28438;DHT22;15667;52.376;9.708;2023-05-19T16:55:04;18.20;93.40
28438;DHT22;15667;52.376;9.708;2023-05-19T16:57:30;18.20;93.80
28438;DHT22;15667;52.376;9.708;2023-05-19T16:59:56;18.20;93.50
28438;DHT22;15667;52.376;9.708;2023-05-19T17:02:24;18.10;94.40
28438;DHT22;15667;52.376;9.708;2023-05-19T17:04:52;18.10;94.60
28438;DHT22;15667;52.376;9.708;2023-05-19T17:07:20;18.10;94.20
28438;DHT22;15667;52.376;9.708;2023-05-19T17:20:00;18.00;93.80
28438;DHT22;15667;52.376;9.708;2023-05-19T17:22:44;17.90;94.20
28438;DHT22;15667;52.376;9.708;2023-05-19T17:50:21;18.00;94.40
28438;DHT22;15667;52.376;9.708;2023-05-19T17:52:47;18.00;94.90
28438;DHT22;15667;52.376;9.708;2023-05-19T17:55:13;17.90;94.80
28438;DHT22;15667;52.376;9.708;2023-05-19T17:57:42;17.90;94.90
28438;DHT22;15667;52.376;9.708;2023-05-19T18:00:21;17.90;94.40
28438;DHT22;15667;52.376;9.708;2023-05-19T18:02:48;17.80;94.50
28438;DHT22;15667;52.376;9.708;2023-05-19T18:05:14;17.80;94.50
28438;DHT22;15667;52.376;9.708;2023-05-19T18:07:41;17.80;94.20
28438;DHT22;15667;52.376;9.708;2023-05-19T18:10:07;17.80;94.60
28438;DHT22;15667;52.376;9.708;2023-05-19T18:12:34;17.80;94.90
28438;DHT22;15667;52.376;9.708;2023-05-19T18:14:59;17.70;94.40
28438;DHT22;15667;52.376;9.708;2023-05-19T18:17:25;17.60;94.40
28438;DHT22;15667;52.376;9.708;2023-05-19T18:19:51;18.10;95.20
28438;DHT22;15667;52.376;9.708;2023-05-19T18:22:16;17.50;95.20
28438;DHT22;15667;52.376;9.708;2023-05-19T18:24:42;17.50;95.30
28438;DHT22;15667;52.376;9.708;2023-05-19T18:27:08;17.60;95.10
28438;DHT22;15667;52.376;9.708;2023-05-19T18:29:34;18.50;95.60
28438;DHT22;15667;52.376;9.708;2023-05-19T18:31:59;16.50;95.00
28438;DHT22;15667;52.376;9.708;2023-05-19T18:34:25;17.60;95.80
28438;DHT22;15667;52.376;9.708;2023-05-19T18:36:52;17.40;96.00
28438;DHT22;15667;52.376;9.708;2023-05-19T18:39:18;17.40;95.70
28438;DHT22;15667;52.376;9.708;2023-05-19T18:41:43;17.40;96.00
28438;DHT22;15667;52.376;9.708;2023-05-19T18:44:10;17.30;95.90
28438;DHT22;15667;52.376;9.708;2023-05-19T18:46:35;17.30;96.70
28438;DHT22;15667;52.376;9.708;2023-05-19T18:49:01;17.20;96.30
28438;DHT22;15667;52.376;9.708;2023-05-19T18:51:28;17.30;96.80
28438;DHT22;15667;52.376;9.708;2023-05-19T18:53:54;18.30;97.50
28438;DHT22;15667;52.376;9.708;2023-05-19T18:56:23;17.20;96.50
28438;DHT22;15667;52.376;9.708;2023-05-19T18:58:49;17.10;97.00
28438;DHT22;15667;52.376;9.708;2023-05-19T19:01:15;17.20;96.70
28438;DHT22;15667;52.376;9.708;2023-05-19T19:03:42;17.10;97.30
28438;DHT22;15667;52.376;9.708;2023-05-19T19:06:11;17.40;97.00
28438;DHT22;15667;52.376;9.708;2023-05-19T19:08:36;18.00;97.50
28438;DHT22;15667;52.376;9.708;2023-05-19T19:11:02;17.00;97.90
28438;DHT22;15667;52.376;9.708;2023-05-19T19:13:29;16.90;97.70
28438;DHT22;15667;52.376;9.708;2023-05-19T19:15:54;17.30;97.50
28438;DHT22;15667;52.376;9.708;2023-05-19T19:18:20;16.80;98.10
28438;DHT22;15667;52.376;9.708;2023-05-19T19:20:46;16.90;98.00
28438;DHT22;15667;52.376;9.708;2023-05-19T19:23:12;16.70;98.20
28438;DHT22;15667;52.376;9.708;2023-05-19T19:25:37;16.70;98.30
28438;DHT22;15667;52.376;9.708;2023-05-19T19:28:03;16.80;98.60
28438;DHT22;15667;52.376;9.708;2023-05-19T19:30:29;16.60;98.30
28438;DHT22;15667;52.376;9.708;2023-05-19T19:32:54;17.40;99.30
28438;DHT22;15667;52.376;9.708;2023-05-19T19:35:21;17.00;98.90
28438;DHT22;15667;52.376;9.708;2023-05-19T19:37:47;16.90;99.20
28438;DHT22;15667;52.376;9.708;2023-05-19T19:40:13;17.00;99.50
28438;DHT22;15667;52.376;9.708;2023-05-19T19:42:39;17.70;99.90
28438;DHT22;15667;52.376;9.708;2023-05-19T19:45:05;16.30;99.70
28438;DHT22;15667;52.376;9.708;2023-05-19T19:47:31;16.30;99.70
28438;DHT22;15667;52.376;9.708;2023-05-19T19:49:57;16.20;99.90
28438;DHT22;15667;52.376;9.708;2023-05-19T19:52:28;15.70;99.80
28438;DHT22;15667;52.376;9.708;2023-05-19T19:54:54;16.10;99.90
28438;DHT22;15667;52.376;9.708;2023-05-19T19:57:20;17.20;99.90
28438;DHT22;15667;52.376;9.708;2023-05-19T19:59:46;16.00;99.90
28438;DHT22;15667;52.376;9.708;2023-05-19T20:02:19;16.00;99.90
28438;DHT22;15667;52.376;9.708;2023-05-19T20:04:45;17.10;99.90
28438;DHT22;15667;52.376;9.708;2023-05-19T20:07:11;16.00;99.90
28438;DHT22;15667;52.376;9.708;2023-05-19T20:09:37;16.00;99.90
28438;DHT22;15667;52.376;9.708;2023-05-19T20:12:03;16.30;99.90
28438;DHT22;15667;52.376;9.708;2023-05-19T20:14:31;15.90;99.90
28438;DHT22;15667;52.376;9.708;2023-05-19T20:16:57;15.90;99.90
28438;DHT22;15667;52.376;9.708;2023-05-19T20:19:23;16.30;99.90
28438;DHT22;15667;52.376;9.708;2023-05-19T20:21:50;15.70;99.90
28438;DHT22;15667;52.376;9.708;2023-05-19T20:24:18;15.60;99.90
28438;DHT22;15667;52.376;9.708;2023-05-19T20:26:44;15.80;99.90
28438;DHT22;15667;52.376;9.708;2023-05-19T20:29:10;15.90;99.90
28438;DHT22;15667;52.376;9.708;2023-05-19T20:31:35;15.50;99.90
28438;DHT22;15667;52.376;9.708;2023-05-19T20:34:03;14.30;99.90
28438;DHT22;15667;52.376;9.708;2023-05-19T20:36:30;15.90;99.90
28438;DHT22;15667;52.376;9.708;2023-05-19T20:38:58;15.30;99.90
28438;DHT22;15667;52.376;9.708;2023-05-19T20:41:24;14.50;99.90
28438;DHT22;15667;52.376;9.708;2023-05-19T20:43:50;14.00;99.90
28438;DHT22;15667;52.376;9.708;2023-05-19T20:46:19;16.40;99.90
28438;DHT22;15667;52.376;9.708;2023-05-19T20:48:45;15.30;99.90
28438;DHT22;15667;52.376;9.708;2023-05-19T20:51:10;15.20;99.90
28438;DHT22;15667;52.376;9.708;2023-05-19T20:53:36;15.10;99.90
28438;DHT22;15667;52.376;9.708;2023-05-19T20:56:01;15.10;99.90
28438;DHT22;15667;52.376;9.708;2023-05-19T20:58:28;15.20;99.90
28438;DHT22;15667;52.376;9.708;2023-05-19T21:00:54;15.20;99.90
28438;DHT22;15667;52.376;9.708;2023-05-19T21:03:22;16.00;99.90
28438;DHT22;15667;52.376;9.708;2023-05-19T21:05:49;16.10;99.90
28438;DHT22;15667;52.376;9.708;2023-05-19T21:08:15;15.70;99.90
28438;DHT22;15667;52.376;9.708;2023-05-19T21:10:40;15.90;99.90
28438;DHT22;15667;52.376;9.708;2023-05-19T21:13:06;15.20;99.90
28438;DHT22;15667;52.376;9.708;2023-05-19T21:15:32;15.60;99.90
28438;DHT22;15667;52.376;9.708;2023-05-19T21:17:57;14.70;99.90
28438;DHT22;15667;52.376;9.708;2023-05-19T21:20:23;16.20;99.90
28438;DHT22;15667;52.376;9.708;2023-05-19T21:22:49;14.60;99.90
28438;DHT22;15667;52.376;9.708;2023-05-19T21:25:14;15.80;99.90
28438;DHT22;15667;52.376;9.708;2023-05-19T21:27:41;13.60;99.90
28438;DHT22;15667;52.376;9.708;2023-05-19T21:30:07;15.70;99.90
28438;DHT22;15667;52.376;9.708;2023-05-19T21:32:34;14.50;99.90
28438;DHT22;15667;52.376;9.708;2023-05-19T21:34:59;14.40;99.90
28438;DHT22;15667;52.376;9.708;2023-05-19T21:37:25;14.40;99.90
28438;DHT22;15667;52.376;9.708;2023-05-19T21:39:51;15.00;99.90
28438;DHT22;15667;52.376;9.708;2023-05-19T21:42:17;14.30;99.90
28438;DHT22;15667;52.376;9.708;2023-05-19T21:44:45;14.80;99.90
28438;DHT22;15667;52.376;9.708;2023-05-19T21:47:11;14.20;99.90
28438;DHT22;15667;52.376;9.708;2023-05-19T21:49:39;14.90;99.90
28438;DHT22;15667;52.376;9.708;2023-05-19T21:52:06;15.00;99.90
28438;DHT22;15667;52.376;9.708;2023-05-19T21:54:32;14.00;99.90
28438;DHT22;15667;52.376;9.708;2023-05-19T21:56:58;13.80;99.90
28438;DHT22;15667;52.376;9.708;2023-05-19T21:59:23;13.80;99.90
28438;DHT22;15667;52.376;9.708;2023-05-19T22:01:50;15.30;99.90
28438;DHT22;15667;52.376;9.708;2023-05-19T22:04:16;14.30;99.90
28438;DHT22;15667;52.376;9.708;2023-05-19T22:06:42;13.90;99.90
28438;DHT22;15667;52.376;9.708;2023-05-19T22:09:08;13.60;99.90
28438;DHT22;15667;52.376;9.708;2023-05-19T22:11:33;14.90;99.90
28438;DHT22;15667;52.376;9.708;2023-05-19T22:13:59;13.80;99.90
28438;DHT22;15667;52.376;9.708;2023-05-19T22:16:25;14.60;99.90
28438;DHT22;15667;52.376;9.708;2023-05-19T22:18:50;13.70;99.90
28438;DHT22;15667;52.376;9.708;2023-05-19T22:21:16;14.50;99.90
28438;DHT22;15667;52.376;9.708;2023-05-19T22:23:42;14.00;99.90
28438;DHT22;15667;52.376;9.708;2023-05-19T22:26:08;14.50;99.90
28438;DHT22;15667;52.376;9.708;2023-05-19T22:28:33;14.30;99.90
28438;DHT22;15667;52.376;9.708;2023-05-19T22:30:59;14.20;99.90
28438;DHT22;15667;52.376;9.708;2023-05-19T22:33:25;14.60;99.90
28438;DHT22;15667;52.376;9.708;2023-05-19T22:35:50;14.20;99.90
28438;DHT22;15667;52.376;9.708;2023-05-19T22:38:16;15.00;99.90
28438;DHT22;15667;52.376;9.708;2023-05-19T22:40:41;13.80;99.90
28438;DHT22;15667;52.376;9.708;2023-05-19T22:43:07;14.40;99.90
28438;DHT22;15667;52.376;9.708;2023-05-19T22:45:33;14.60;99.90
28438;DHT22;15667;52.376;9.708;2023-05-19T22:48:00;15.10;99.90
28438;DHT22;15667;52.376;9.708;2023-05-19T22:50:25;15.10;99.90
28438;DHT22;15667;52.376;9.708;2023-05-19T22:52:51;14.20;99.90
28438;DHT22;15667;52.376;9.708;2023-05-19T22:55:17;13.80;99.90
28438;DHT22;15667;52.376;9.708;2023-05-19T22:57:42;14.10;99.90
28438;DHT22;15667;52.376;9.708;2023-05-19T23:00:09;13.60;99.90
28438;DHT22;15667;52.376;9.708;2023-05-19T23:02:34;13.30;99.90
28438;DHT22;15667;52.376;9.708;2023-05-19T23:05:00;15.00;99.90
28438;DHT22;15667;52.376;9.708;2023-05-19T23:07:26;13.20;99.90
28438;DHT22;15667;52.376;9.708;2023-05-19T23:09:51;14.70;99.90
28438;DHT22;15667;52.376;9.708;2023-05-19T23:12:17;13.10;99.90
28438;DHT22;15667;52.376;9.708;2023-05-19T23:14:43;13.00;99.90
28438;DHT22;15667;52.376;9.708;2023-05-19T23:17:08;13.90;99.90
28438;DHT22;15667;52.376;9.708;2023-05-19T23:19:34;11.50;99.90
28438;DHT22;15667;52.376;9.708;2023-05-19T23:22:01;14.20;99.90
28438;DHT22;15667;52.376;9.708;2023-05-19T23:24:26;13.40;99.90
28438;DHT22;15667;52.376;9.708;2023-05-19T23:26:55;13.40;99.90
28438;DHT22;15667;52.376;9.708;2023-05-19T23:29:21;13.80;99.90
28438;DHT22;15667;52.376;9.708;2023-05-19T23:31:46;14.40;99.90
28438;DHT22;15667;52.376;9.708;2023-05-19T23:34:12;14.50;99.90
28438;DHT22;15667;52.376;9.708;2023-05-19T23:36:37;13.00;99.90
28438;DHT22;15667;52.376;9.708;2023-05-19T23:39:03;14.30;99.90
28438;DHT22;15667;52.376;9.708;2023-05-19T23:41:29;13.60;99.90
28438;DHT22;15667;52.376;9.708;2023-05-19T23:43:54;13.90;99.90
28438;DHT22;15667;52.376;9.708;2023-05-19T23:46:20;14.00;99.90
28438;DHT22;15667;52.376;9.708;2023-05-19T23:48:46;12.90;99.90
28438;DHT22;15667;52.376;9.708;2023-05-19T23:51:12;13.90;99.90
28438;DHT22;15667;52.376;9.708;2023-05-19T23:53:37;13.00;99.90
28438;DHT22;15667;52.376;9.708;2023-05-19T23:56:03;13.50;99.90
28438;DHT22;15667;52.376;9.708;2023-05-19T23:58:29;12.80;99.90
